Twin Brooks, South Dakota
Current Conditions -  °F | °C
As of 10:34 AM on Tuesday 27 Jan 2015 (Local Time) from KVVV Reporting Station
Moderate Fog Moderate Fog  
Wind Chill: 20°   Ceiling: 200
Heat Index: 28°   Visibility: 0.25mi
Dew Point: 27°   Wind: 9mph
Humidity: 93%   Direction: 140°SE
Pressure: 30.1"   Gusts: NA
Location:  45.21°N, 96.78°W
Report Text: KVVV 271634Z AUTO 14008KT 1/4SM FZFG OVC002 M02/M03 A3010 RMK AO2
Loading
Personal Weather Stations






























Interactive Weather Map New forecast layout! Learn more

10-Day Weather Forecast

Advertisements
Track Severe Weather on mobile